sensor_id;sensor_type;location;lat;lon;timestamp;temperature;humidity
64961;SHT31;51487;52.266;10.542;2024-02-21T00:02:08;8.65;92.34
64961;SHT31;51487;52.266;10.542;2024-02-21T00:04:33;8.59;92.86
64961;SHT31;51487;52.266;10.542;2024-02-21T00:06:59;8.72;92.06
64961;SHT31;51487;52.266;10.542;2024-02-21T00:09:24;8.62;92.43
64961;SHT31;51487;52.266;10.542;2024-02-21T00:11:50;8.60;92.54
64961;SHT31;51487;52.266;10.542;2024-02-21T00:14:15;8.60;92.79
64961;SHT31;51487;52.266;10.542;2024-02-21T00:16:41;8.56;93.08
64961;SHT31;51487;52.266;10.542;2024-02-21T00:19:07;8.62;93.16
64961;SHT31;51487;52.266;10.542;2024-02-21T00:21:32;8.67;93.42
64961;SHT31;51487;52.266;10.542;2024-02-21T00:23:58;8.72;93.27
64961;SHT31;51487;52.266;10.542;2024-02-21T00:26:23;8.75;92.41
64961;SHT31;51487;52.266;10.542;2024-02-21T00:28:49;8.76;92.24
64961;SHT31;51487;52.266;10.542;2024-02-21T00:31:14;8.80;92.48
64961;SHT31;51487;52.266;10.542;2024-02-21T00:33:40;8.87;91.56
64961;SHT31;51487;52.266;10.542;2024-02-21T00:36:05;8.83;92.48
64961;SHT31;51487;52.266;10.542;2024-02-21T00:38:31;8.84;92.67
64961;SHT31;51487;52.266;10.542;2024-02-21T00:40:56;8.86;92.39
64961;SHT31;51487;52.266;10.542;2024-02-21T00:43:22;8.84;92.61
64961;SHT31;51487;52.266;10.542;2024-02-21T00:45:49;8.80;92.45
64961;SHT31;51487;52.266;10.542;2024-02-21T00:48:15;8.81;91.78
64961;SHT31;51487;52.266;10.542;2024-02-21T00:50:40;8.94;91.69
64961;SHT31;51487;52.266;10.542;2024-02-21T00:53:06;8.88;92.07
64961;SHT31;51487;52.266;10.542;2024-02-21T00:55:32;8.90;91.85
64961;SHT31;51487;52.266;10.542;2024-02-21T00:57:57;8.83;91.65
64961;SHT31;51487;52.266;10.542;2024-02-21T01:00:23;8.83;92.06
64961;SHT31;51487;52.266;10.542;2024-02-21T01:02:48;8.90;91.85
64961;SHT31;51487;52.266;10.542;2024-02-21T01:05:13;8.97;91.57
64961;SHT31;51487;52.266;10.542;2024-02-21T01:07:39;9.00;91.20
64961;SHT31;51487;52.266;10.542;2024-02-21T01:10:06;9.03;90.88
64961;SHT31;51487;52.266;10.542;2024-02-21T01:12:32;8.91;90.98
64961;SHT31;51487;52.266;10.542;2024-02-21T01:14:57;8.90;91.47
64961;SHT31;51487;52.266;10.542;2024-02-21T01:17:22;8.97;91.60
64961;SHT31;51487;52.266;10.542;2024-02-21T01:19:48;9.07;91.50
64961;SHT31;51487;52.266;10.542;2024-02-21T01:22:13;9.00;91.53
64961;SHT31;51487;52.266;10.542;2024-02-21T01:24:41;9.03;91.26
64961;SHT31;51487;52.266;10.542;2024-02-21T01:27:07;9.01;91.29
64961;SHT31;51487;52.266;10.542;2024-02-21T01:29:32;8.99;91.82
64961;SHT31;51487;52.266;10.542;2024-02-21T01:31:58;9.00;91.63
64961;SHT31;51487;52.266;10.542;2024-02-21T01:34:23;9.03;91.24
64961;SHT31;51487;52.266;10.542;2024-02-21T01:36:49;9.03;91.47
64961;SHT31;51487;52.266;10.542;2024-02-21T01:39:15;9.08;91.41
64961;SHT31;51487;52.266;10.542;2024-02-21T01:41:41;9.11;90.98
64961;SHT31;51487;52.266;10.542;2024-02-21T01:44:06;9.11;91.41
64961;SHT31;51487;52.266;10.542;2024-02-21T01:46:32;9.11;91.56
64961;SHT31;51487;52.266;10.542;2024-02-21T01:48:58;8.93;92.00
64961;SHT31;51487;52.266;10.542;2024-02-21T01:51:24;9.04;91.55
64961;SHT31;51487;52.266;10.542;2024-02-21T01:53:51;8.96;91.77
64961;SHT31;51487;52.266;10.542;2024-02-21T01:56:18;9.03;91.57
64961;SHT31;51487;52.266;10.542;2024-02-21T01:58:46;9.08;91.67
64961;SHT31;51487;52.266;10.542;2024-02-21T02:01:12;9.04;91.98
64961;SHT31;51487;52.266;10.542;2024-02-21T02:03:38;9.03;91.72
64961;SHT31;51487;52.266;10.542;2024-02-21T02:06:05;9.10;91.54
64961;SHT31;51487;52.266;10.542;2024-02-21T02:08:32;9.00;92.07
64961;SHT31;51487;52.266;10.542;2024-02-21T02:10:59;8.99;92.28
64961;SHT31;51487;52.266;10.542;2024-02-21T02:13:24;8.94;92.18
64961;SHT31;51487;52.266;10.542;2024-02-21T02:15:50;9.00;92.16
64961;SHT31;51487;52.266;10.542;2024-02-21T02:18:18;9.06;91.99
64961;SHT31;51487;52.266;10.542;2024-02-21T02:20:45;9.06;91.65
64961;SHT31;51487;52.266;10.542;2024-02-21T02:23:30;9.10;91.72
64961;SHT31;51487;52.266;10.542;2024-02-21T02:25:59;8.99;91.68
64961;SHT31;51487;52.266;10.542;2024-02-21T02:28:26;9.03;92.07
64961;SHT31;51487;52.266;10.542;2024-02-21T02:30:52;8.94;92.08
64961;SHT31;51487;52.266;10.542;2024-02-21T02:33:18;9.00;92.27
64961;SHT31;51487;52.266;10.542;2024-02-21T02:35:44;9.06;91.45
64961;SHT31;51487;52.266;10.542;2024-02-21T02:38:09;9.00;91.52
64961;SHT31;51487;52.266;10.542;2024-02-21T02:40:38;9.00;91.60
64961;SHT31;51487;52.266;10.542;2024-02-21T02:43:04;9.01;91.34
64961;SHT31;51487;52.266;10.542;2024-02-21T02:45:30;9.04;91.45
64961;SHT31;51487;52.266;10.542;2024-02-21T02:47:57;9.07;90.87
64961;SHT31;51487;52.266;10.542;2024-02-21T02:50:27;9.06;90.90
64961;SHT31;51487;52.266;10.542;2024-02-21T02:52:55;9.17;90.61
64961;SHT31;51487;52.266;10.542;2024-02-21T02:55:21;9.14;90.32
64961;SHT31;51487;52.266;10.542;2024-02-21T02:57:46;9.18;90.38
64961;SHT31;51487;52.266;10.542;2024-02-21T03:00:14;9.17;90.89
64961;SHT31;51487;52.266;10.542;2024-02-21T03:02:42;9.17;90.62
64961;SHT31;51487;52.266;10.542;2024-02-21T03:05:16;9.17;90.36
64961;SHT31;51487;52.266;10.542;2024-02-21T03:07:42;9.30;90.10
64961;SHT31;51487;52.266;10.542;2024-02-21T03:10:08;9.21;90.00
64961;SHT31;51487;52.266;10.542;2024-02-21T03:12:34;9.23;89.56
64961;SHT31;51487;52.266;10.542;2024-02-21T03:14:59;9.24;89.47
64961;SHT31;51487;52.266;10.542;2024-02-21T03:17:25;9.15;90.37
64961;SHT31;51487;52.266;10.542;2024-02-21T03:19:52;9.20;90.06
64961;SHT31;51487;52.266;10.542;2024-02-21T03:22:18;9.21;90.29
64961;SHT31;51487;52.266;10.542;2024-02-21T03:24:44;9.28;89.89
64961;SHT31;51487;52.266;10.542;2024-02-21T03:27:10;9.20;89.91
64961;SHT31;51487;52.266;10.542;2024-02-21T03:29:35;9.27;90.13
64961;SHT31;51487;52.266;10.542;2024-02-21T03:32:01;9.35;89.57
64961;SHT31;51487;52.266;10.542;2024-02-21T03:34:26;9.30;89.53
64961;SHT31;51487;52.266;10.542;2024-02-21T03:36:51;9.24;89.94
64961;SHT31;51487;52.266;10.542;2024-02-21T03:39:17;9.28;89.58
64961;SHT31;51487;52.266;10.542;2024-02-21T03:41:42;9.30;89.63
64961;SHT31;51487;52.266;10.542;2024-02-21T03:44:10;9.25;89.95
64961;SHT31;51487;52.266;10.542;2024-02-21T03:46:35;9.20;90.03
64961;SHT31;51487;52.266;10.542;2024-02-21T03:49:01;9.27;89.83
64961;SHT31;51487;52.266;10.542;2024-02-21T03:51:26;9.28;89.81
64961;SHT31;51487;52.266;10.542;2024-02-21T03:53:52;9.32;89.66
64961;SHT31;51487;52.266;10.542;2024-02-21T03:56:17;9.30;89.55
64961;SHT31;51487;52.266;10.542;2024-02-21T03:58:43;9.23;89.65
64961;SHT31;51487;52.266;10.542;2024-02-21T04:01:08;9.20;89.70
64961;SHT31;51487;52.266;10.542;2024-02-21T04:03:34;9.24;90.12
64961;SHT31;51487;52.266;10.542;2024-02-21T04:05:59;9.23;89.51
64961;SHT31;51487;52.266;10.542;2024-02-21T04:08:25;9.13;89.86
64961;SHT31;51487;52.266;10.542;2024-02-21T04:10:51;9.06;90.13
64961;SHT31;51487;52.266;10.542;2024-02-21T04:13:16;9.10;90.10
64961;SHT31;51487;52.266;10.542;2024-02-21T04:15:42;9.14;89.97
64961;SHT31;51487;52.266;10.542;2024-02-21T04:18:07;9.20;89.70
64961;SHT31;51487;52.266;10.542;2024-02-21T04:20:34;9.21;89.20
64961;SHT31;51487;52.266;10.542;2024-02-21T04:23:00;9.30;89.07
64961;SHT31;51487;52.266;10.542;2024-02-21T04:25:26;9.32;88.94
64961;SHT31;51487;52.266;10.542;2024-02-21T04:27:52;9.36;88.57
64961;SHT31;51487;52.266;10.542;2024-02-21T04:30:18;9.24;88.94
64961;SHT31;51487;52.266;10.542;2024-02-21T04:32:43;9.31;88.99
64961;SHT31;51487;52.266;10.542;2024-02-21T04:35:09;9.44;87.93
64961;SHT31;51487;52.266;10.542;2024-02-21T04:37:34;9.34;88.33
64961;SHT31;51487;52.266;10.542;2024-02-21T04:40:00;9.35;88.59
64961;SHT31;51487;52.266;10.542;2024-02-21T04:42:25;9.44;88.25
64961;SHT31;51487;52.266;10.542;2024-02-21T04:44:51;9.24;88.09
64961;SHT31;51487;52.266;10.542;2024-02-21T04:47:17;9.45;87.42
64961;SHT31;51487;52.266;10.542;2024-02-21T04:49:42;9.41;87.14
64961;SHT31;51487;52.266;10.542;2024-02-21T04:52:08;9.46;87.37
64961;SHT31;51487;52.266;10.542;2024-02-21T04:54:34;9.42;87.16
64961;SHT31;51487;52.266;10.542;2024-02-21T04:57:01;9.38;87.51
64961;SHT31;51487;52.266;10.542;2024-02-21T04:59:26;9.32;87.84
64961;SHT31;51487;52.266;10.542;2024-02-21T05:01:52;9.25;88.22
64961;SHT31;51487;52.266;10.542;2024-02-21T05:04:17;9.30;87.95
64961;SHT31;51487;52.266;10.542;2024-02-21T05:06:43;9.38;87.37
64961;SHT31;51487;52.266;10.542;2024-02-21T05:09:09;9.52;86.78
64961;SHT31;51487;52.266;10.542;2024-02-21T05:11:36;9.54;86.37
64961;SHT31;51487;52.266;10.542;2024-02-21T05:14:03;9.52;86.40
64961;SHT31;51487;52.266;10.542;2024-02-21T05:16:29;9.36;86.79
64961;SHT31;51487;52.266;10.542;2024-02-21T05:18:54;9.39;86.65
64961;SHT31;51487;52.266;10.542;2024-02-21T05:21:22;9.42;86.90
64961;SHT31;51487;52.266;10.542;2024-02-21T05:23:49;9.54;85.89
64961;SHT31;51487;52.266;10.542;2024-02-21T05:26:22;9.46;86.35
64961;SHT31;51487;52.266;10.542;2024-02-21T05:28:48;9.56;86.24
64961;SHT31;51487;52.266;10.542;2024-02-21T05:31:16;9.52;86.51
64961;SHT31;51487;52.266;10.542;2024-02-21T05:33:43;9.49;86.13
64961;SHT31;51487;52.266;10.542;2024-02-21T05:36:09;9.52;86.20
64961;SHT31;51487;52.266;10.542;2024-02-21T05:38:34;9.52;85.95
64961;SHT31;51487;52.266;10.542;2024-02-21T05:41:01;9.44;86.59
64961;SHT31;51487;52.266;10.542;2024-02-21T05:43:26;9.45;86.28
64961;SHT31;51487;52.266;10.542;2024-02-21T05:45:51;9.49;86.23
64961;SHT31;51487;52.266;10.542;2024-02-21T05:48:17;9.58;86.03
64961;SHT31;51487;52.266;10.542;2024-02-21T05:50:42;9.56;86.19
64961;SHT31;51487;52.266;10.542;2024-02-21T05:53:08;9.49;86.78
64961;SHT31;51487;52.266;10.542;2024-02-21T05:55:35;9.45;86.74
64961;SHT31;51487;52.266;10.542;2024-02-21T05:58:01;9.55;86.47
64961;SHT31;51487;52.266;10.542;2024-02-21T06:00:28;9.46;86.49
64961;SHT31;51487;52.266;10.542;2024-02-21T06:02:53;9.44;86.71
64961;SHT31;51487;52.266;10.542;2024-02-21T06:05:19;9.41;86.63
64961;SHT31;51487;52.266;10.542;2024-02-21T06:07:44;9.46;86.72
64961;SHT31;51487;52.266;10.542;2024-02-21T06:10:10;9.42;86.81
64961;SHT31;51487;52.266;10.542;2024-02-21T06:12:35;9.44;87.10
64961;SHT31;51487;52.266;10.542;2024-02-21T06:15:01;9.51;87.09
64961;SHT31;51487;52.266;10.542;2024-02-21T06:17:26;9.52;86.51
64961;SHT31;51487;52.266;10.542;2024-02-21T06:19:52;9.52;86.95
64961;SHT31;51487;52.266;10.542;2024-02-21T06:22:17;9.55;86.70
64961;SHT31;51487;52.266;10.542;2024-02-21T06:24:43;9.52;86.96
64961;SHT31;51487;52.266;10.542;2024-02-21T06:27:09;9.48;87.03
64961;SHT31;51487;52.266;10.542;2024-02-21T06:29:35;9.48;87.38
64961;SHT31;51487;52.266;10.542;2024-02-21T06:32:01;9.48;87.19
64961;SHT31;51487;52.266;10.542;2024-02-21T06:34:27;9.54;86.99
64961;SHT31;51487;52.266;10.542;2024-02-21T06:36:53;9.56;87.04
64961;SHT31;51487;52.266;10.542;2024-02-21T06:39:18;9.49;87.08
64961;SHT31;51487;52.266;10.542;2024-02-21T06:41:44;9.54;87.03
64961;SHT31;51487;52.266;10.542;2024-02-21T06:44:09;9.54;86.96
64961;SHT31;51487;52.266;10.542;2024-02-21T06:46:35;9.55;86.75
64961;SHT31;51487;52.266;10.542;2024-02-21T06:49:02;9.58;86.82
64961;SHT31;51487;52.266;10.542;2024-02-21T06:51:30;9.52;86.90
64961;SHT31;51487;52.266;10.542;2024-02-21T06:53:57;9.46;87.29
64961;SHT31;51487;52.266;10.542;2024-02-21T06:56:24;9.55;87.14
64961;SHT31;51487;52.266;10.542;2024-02-21T06:58:56;9.48;87.44
64961;SHT31;51487;52.266;10.542;2024-02-21T07:01:22;9.58;87.84
64961;SHT31;51487;52.266;10.542;2024-02-21T07:03:48;9.55;87.13
64961;SHT31;51487;52.266;10.542;2024-02-21T07:06:13;9.56;87.11
64961;SHT31;51487;52.266;10.542;2024-02-21T07:08:39;9.58;87.23
64961;SHT31;51487;52.266;10.542;2024-02-21T07:11:05;9.52;87.09
64961;SHT31;51487;52.266;10.542;2024-02-21T07:13:32;9.54;86.95
64961;SHT31;51487;52.266;10.542;2024-02-21T07:15:57;9.65;86.68
64961;SHT31;51487;52.266;10.542;2024-02-21T07:18:23;9.61;86.89
64961;SHT31;51487;52.266;10.542;2024-02-21T07:20:51;9.61;87.12
64961;SHT31;51487;52.266;10.542;2024-02-21T07:23:17;9.62;87.00
64961;SHT31;51487;52.266;10.542;2024-02-21T07:25:42;9.61;86.75
64961;SHT31;51487;52.266;10.542;2024-02-21T07:28:08;9.55;86.91
64961;SHT31;51487;52.266;10.542;2024-02-21T07:30:34;9.69;86.57
64961;SHT31;51487;52.266;10.542;2024-02-21T07:32:59;9.79;86.44
64961;SHT31;51487;52.266;10.542;2024-02-21T07:35:25;9.81;86.17
64961;SHT31;51487;52.266;10.542;2024-02-21T07:37:50;9.82;86.46
64961;SHT31;51487;52.266;10.542;2024-02-21T07:40:17;9.83;86.42
64961;SHT31;51487;52.266;10.542;2024-02-21T07:42:43;9.81;86.33
64961;SHT31;51487;52.266;10.542;2024-02-21T07:45:09;9.73;86.48
64961;SHT31;51487;52.266;10.542;2024-02-21T07:47:36;9.73;86.30
64961;SHT31;51487;52.266;10.542;2024-02-21T07:50:03;9.72;86.57
64961;SHT31;51487;52.266;10.542;2024-02-21T07:52:29;9.86;86.34
64961;SHT31;51487;52.266;10.542;2024-02-21T07:54:55;9.86;86.32
64961;SHT31;51487;52.266;10.542;2024-02-21T07:57:20;9.96;85.68
64961;SHT31;51487;52.266;10.542;2024-02-21T07:59:47;9.96;85.92
64961;SHT31;51487;52.266;10.542;2024-02-21T08:02:16;9.94;86.19
64961;SHT31;51487;52.266;10.542;2024-02-21T08:04:42;9.87;86.12
64961;SHT31;51487;52.266;10.542;2024-02-21T08:07:09;10.02;86.23
64961;SHT31;51487;52.266;10.542;2024-02-21T08:09:35;10.12;85.91
64961;SHT31;51487;52.266;10.542;2024-02-21T08:12:04;9.97;85.25
64961;SHT31;51487;52.266;10.542;2024-02-21T08:14:29;10.14;84.68
64961;SHT31;51487;52.266;10.542;2024-02-21T08:16:55;10.06;85.64
64961;SHT31;51487;52.266;10.542;2024-02-21T08:19:21;10.07;85.76
64961;SHT31;51487;52.266;10.542;2024-02-21T08:21:50;10.25;85.33
64961;SHT31;51487;52.266;10.542;2024-02-21T08:24:15;10.30;84.50
64961;SHT31;51487;52.266;10.542;2024-02-21T08:26:42;10.47;84.60
64961;SHT31;51487;52.266;10.542;2024-02-21T08:29:08;10.16;84.45
64961;SHT31;51487;52.266;10.542;2024-02-21T08:31:33;10.20;84.09
64961;SHT31;51487;52.266;10.542;2024-02-21T08:34:00;10.29;84.26
64961;SHT31;51487;52.266;10.542;2024-02-21T08:36:34;10.29;84.37
64961;SHT31;51487;52.266;10.542;2024-02-21T08:39:00;10.23;84.17
64961;SHT31;51487;52.266;10.542;2024-02-21T08:41:26;10.02;84.65
64961;SHT31;51487;52.266;10.542;2024-02-21T08:43:53;10.06;85.04
64961;SHT31;51487;52.266;10.542;2024-02-21T08:46:22;10.18;84.94
64961;SHT31;51487;52.266;10.542;2024-02-21T08:48:50;10.27;84.74
64961;SHT31;51487;52.266;10.542;2024-02-21T08:51:16;10.43;84.23
64961;SHT31;51487;52.266;10.542;2024-02-21T08:53:43;10.24;84.93
64961;SHT31;51487;52.266;10.542;2024-02-21T08:56:09;10.24;85.06
64961;SHT31;51487;52.266;10.542;2024-02-21T08:58:36;10.40;84.73
64961;SHT31;51487;52.266;10.542;2024-02-21T09:01:03;10.25;84.87
64961;SHT31;51487;52.266;10.542;2024-02-21T09:03:32;10.40;84.52
64961;SHT31;51487;52.266;10.542;2024-02-21T09:05:58;10.53;84.31
64961;SHT31;51487;52.266;10.542;2024-02-21T09:08:24;10.51;84.02
64961;SHT31;51487;52.266;10.542;2024-02-21T09:10:50;10.54;84.26
64961;SHT31;51487;52.266;10.542;2024-02-21T09:13:16;10.68;84.08
64961;SHT31;51487;52.266;10.542;2024-02-21T09:15:42;10.78;84.01
64961;SHT31;51487;52.266;10.542;2024-02-21T09:18:08;10.67;83.77
64961;SHT31;51487;52.266;10.542;2024-02-21T09:20:34;10.76;83.20
64961;SHT31;51487;52.266;10.542;2024-02-21T09:22:59;10.83;83.47
64961;SHT31;51487;52.266;10.542;2024-02-21T09:25:25;10.76;83.76
64961;SHT31;51487;52.266;10.542;2024-02-21T09:27:51;11.01;83.27
64961;SHT31;51487;52.266;10.542;2024-02-21T09:30:17;11.05;82.80
64961;SHT31;51487;52.266;10.542;2024-02-21T09:32:44;11.11;82.87
64961;SHT31;51487;52.266;10.542;2024-02-21T09:35:09;11.32;82.62
64961;SHT31;51487;52.266;10.542;2024-02-21T09:37:35;11.37;81.30
64961;SHT31;51487;52.266;10.542;2024-02-21T09:40:01;11.26;81.72
64961;SHT31;51487;52.266;10.542;2024-02-21T09:42:48;11.39;80.78
64961;SHT31;51487;52.266;10.542;2024-02-21T09:45:19;11.36;81.66
64961;SHT31;51487;52.266;10.542;2024-02-21T09:50:43;11.67;80.23
64961;SHT31;51487;52.266;10.542;2024-02-21T09:53:11;11.54;79.51
64961;SHT31;51487;52.266;10.542;2024-02-21T09:55:38;11.44;79.30
64961;SHT31;51487;52.266;10.542;2024-02-21T09:58:07;11.43;78.50
64961;SHT31;51487;52.266;10.542;2024-02-21T10:00:35;11.49;78.93
64961;SHT31;51487;52.266;10.542;2024-02-21T10:03:01;11.66;78.06
64961;SHT31;51487;52.266;10.542;2024-02-21T10:05:26;11.50;77.32
64961;SHT31;51487;52.266;10.542;2024-02-21T10:07:52;11.70;76.90
64961;SHT31;51487;52.266;10.542;2024-02-21T10:10:19;11.51;75.38
64961;SHT31;51487;52.266;10.542;2024-02-21T10:12:51;11.66;75.70
64961;SHT31;51487;52.266;10.542;2024-02-21T10:15:21;11.56;75.48
64961;SHT31;51487;52.266;10.542;2024-02-21T10:17:48;11.84;75.41
64961;SHT31;51487;52.266;10.542;2024-02-21T10:20:14;11.60;75.45
64961;SHT31;51487;52.266;10.542;2024-02-21T10:22:40;11.60;76.05
64961;SHT31;51487;52.266;10.542;2024-02-21T10:25:10;11.64;76.10
64961;SHT31;51487;52.266;10.542;2024-02-21T10:27:39;11.53;75.78
64961;SHT31;51487;52.266;10.542;2024-02-21T10:30:12;11.49;77.18
64961;SHT31;51487;52.266;10.542;2024-02-21T10:32:50;11.40;77.98
64961;SHT31;51487;52.266;10.542;2024-02-21T10:35:29;11.37;78.36
64961;SHT31;51487;52.266;10.542;2024-02-21T10:37:56;11.40;78.23
64961;SHT31;51487;52.266;10.542;2024-02-21T10:40:27;11.41;77.55
64961;SHT31;51487;52.266;10.542;2024-02-21T10:43:00;11.37;78.10
64961;SHT31;51487;52.266;10.542;2024-02-21T10:45:45;11.47;77.83
64961;SHT31;51487;52.266;10.542;2024-02-21T10:48:14;11.36;77.65
64961;SHT31;51487;52.266;10.542;2024-02-21T10:51:05;11.49;77.92
64961;SHT31;51487;52.266;10.542;2024-02-21T10:54:25;11.34;78.32
64961;SHT31;51487;52.266;10.542;2024-02-21T10:56:57;11.34;77.24
64961;SHT31;51487;52.266;10.542;2024-02-21T10:59:24;11.49;77.06
64961;SHT31;51487;52.266;10.542;2024-02-21T11:01:51;11.43;76.40
64961;SHT31;51487;52.266;10.542;2024-02-21T11:04:18;11.63;76.53
64961;SHT31;51487;52.266;10.542;2024-02-21T11:06:44;11.78;75.77
64961;SHT31;51487;52.266;10.542;2024-02-21T11:09:11;11.66;74.92
64961;SHT31;51487;52.266;10.542;2024-02-21T11:11:42;11.63;76.32
64961;SHT31;51487;52.266;10.542;2024-02-21T11:14:18;11.61;75.59
64961;SHT31;51487;52.266;10.542;2024-02-21T11:16:44;11.61;75.33
64961;SHT31;51487;52.266;10.542;2024-02-21T11:21:46;11.78;75.01
64961;SHT31;51487;52.266;10.542;2024-02-21T11:24:14;12.04;74.32
64961;SHT31;51487;52.266;10.542;2024-02-21T11:26:40;14.18;93.15
64961;SHT31;51487;52.266;10.542;2024-02-21T11:29:09;15.40;79.41
64961;SHT31;51487;52.266;10.542;2024-02-21T11:31:44;15.61;75.56
64961;SHT31;51487;52.266;10.542;2024-02-21T11:34:12;15.14;67.70
64961;SHT31;51487;52.266;10.542;2024-02-21T11:36:57;15.02;68.40
64961;SHT31;51487;52.266;10.542;2024-02-21T11:39:26;14.82;68.43
64961;SHT31;51487;52.266;10.542;2024-02-21T11:42:04;14.72;68.61
64961;SHT31;51487;52.266;10.542;2024-02-21T11:44:32;14.92;67.99
64961;SHT31;51487;52.266;10.542;2024-02-21T11:46:58;15.26;67.91
64961;SHT31;51487;52.266;10.542;2024-02-21T11:49:28;14.64;67.23
64961;SHT31;51487;52.266;10.542;2024-02-21T11:52:01;14.52;67.68
64961;SHT31;51487;52.266;10.542;2024-02-21T11:54:33;14.86;68.47
64961;SHT31;51487;52.266;10.542;2024-02-21T11:57:00;14.74;66.75
64961;SHT31;51487;52.266;10.542;2024-02-21T11:59:26;14.49;67.94
64961;SHT31;51487;52.266;10.542;2024-02-21T12:01:53;14.31;67.86
64961;SHT31;51487;52.266;10.542;2024-02-21T12:04:20;14.09;68.64
64961;SHT31;51487;52.266;10.542;2024-02-21T12:06:46;14.35;67.34
64961;SHT31;51487;52.266;10.542;2024-02-21T12:09:18;14.37;66.88
64961;SHT31;51487;52.266;10.542;2024-02-21T12:11:44;14.42;66.98
64961;SHT31;51487;52.266;10.542;2024-02-21T12:14:10;14.44;67.42
64961;SHT31;51487;52.266;10.542;2024-02-21T12:16:36;14.28;66.25
64961;SHT31;51487;52.266;10.542;2024-02-21T12:19:03;13.83;67.05
64961;SHT31;51487;52.266;10.542;2024-02-21T12:21:33;13.28;68.37
64961;SHT31;51487;52.266;10.542;2024-02-21T12:24:12;12.90;69.75
64961;SHT31;51487;52.266;10.542;2024-02-21T12:26:40;12.79;70.42
64961;SHT31;51487;52.266;10.542;2024-02-21T12:29:05;12.57;70.40
64961;SHT31;51487;52.266;10.542;2024-02-21T12:31:31;12.30;71.58
64961;SHT31;51487;52.266;10.542;2024-02-21T12:33:56;12.40;70.91
64961;SHT31;51487;52.266;10.542;2024-02-21T12:36:22;12.26;70.65
64961;SHT31;51487;52.266;10.542;2024-02-21T12:38:47;12.22;71.41
64961;SHT31;51487;52.266;10.542;2024-02-21T12:41:15;12.21;70.84
64961;SHT31;51487;52.266;10.542;2024-02-21T12:43:40;12.17;71.48
64961;SHT31;51487;52.266;10.542;2024-02-21T12:46:06;12.12;71.56
64961;SHT31;51487;52.266;10.542;2024-02-21T12:48:33;12.17;71.90
64961;SHT31;51487;52.266;10.542;2024-02-21T12:50:59;12.01;71.94
64961;SHT31;51487;52.266;10.542;2024-02-21T12:53:25;12.04;72.18
64961;SHT31;51487;52.266;10.542;2024-02-21T12:55:51;11.88;72.63
64961;SHT31;51487;52.266;10.542;2024-02-21T12:58:16;12.05;72.03
64961;SHT31;51487;52.266;10.542;2024-02-21T13:00:42;11.99;72.48
64961;SHT31;51487;52.266;10.542;2024-02-21T13:03:09;12.05;72.14
64961;SHT31;51487;52.266;10.542;2024-02-21T13:05:38;12.06;72.32
64961;SHT31;51487;52.266;10.542;2024-02-21T13:08:07;12.15;72.04
64961;SHT31;51487;52.266;10.542;2024-02-21T13:10:33;12.24;72.28
64961;SHT31;51487;52.266;10.542;2024-02-21T13:13:01;12.29;72.33
64961;SHT31;51487;52.266;10.542;2024-02-21T13:15:28;12.24;71.63
64961;SHT31;51487;52.266;10.542;2024-02-21T13:17:57;12.33;72.17
64961;SHT31;51487;52.266;10.542;2024-02-21T13:20:25;12.25;72.49
64961;SHT31;51487;52.266;10.542;2024-02-21T13:22:51;12.39;72.07
64961;SHT31;51487;52.266;10.542;2024-02-21T13:25:16;12.35;71.84
64961;SHT31;51487;52.266;10.542;2024-02-21T13:27:45;12.46;71.80
64961;SHT31;51487;52.266;10.542;2024-02-21T13:30:11;12.55;71.82
64961;SHT31;51487;52.266;10.542;2024-02-21T13:32:38;12.49;71.35
64961;SHT31;51487;52.266;10.542;2024-02-21T13:35:04;12.55;71.20
64961;SHT31;51487;52.266;10.542;2024-02-21T13:37:29;12.25;71.68
64961;SHT31;51487;52.266;10.542;2024-02-21T13:39:55;12.22;71.74
64961;SHT31;51487;52.266;10.542;2024-02-21T13:42:21;12.15;72.35
64961;SHT31;51487;52.266;10.542;2024-02-21T13:44:46;12.14;72.70
64961;SHT31;51487;52.266;10.542;2024-02-21T13:47:15;12.15;72.52
64961;SHT31;51487;52.266;10.542;2024-02-21T13:49:41;12.19;72.19
64961;SHT31;51487;52.266;10.542;2024-02-21T13:52:07;12.18;73.00
64961;SHT31;51487;52.266;10.542;2024-02-21T13:54:34;11.97;73.53
64961;SHT31;51487;52.266;10.542;2024-02-21T13:57:00;11.91;74.03
64961;SHT31;51487;52.266;10.542;2024-02-21T13:59:28;11.84;74.09
64961;SHT31;51487;52.266;10.542;2024-02-21T14:01:53;11.81;74.50
64961;SHT31;51487;52.266;10.542;2024-02-21T14:04:19;11.91;74.09
64961;SHT31;51487;52.266;10.542;2024-02-21T14:06:46;12.01;74.07
64961;SHT31;51487;52.266;10.542;2024-02-21T14:09:12;11.94;73.94
64961;SHT31;51487;52.266;10.542;2024-02-21T14:11:38;11.87;74.62
64961;SHT31;51487;52.266;10.542;2024-02-21T14:14:05;11.91;74.60
64961;SHT31;51487;52.266;10.542;2024-02-21T14:16:32;11.85;75.22
64961;SHT31;51487;52.266;10.542;2024-02-21T14:18:58;11.98;75.25
64961;SHT31;51487;52.266;10.542;2024-02-21T14:21:23;12.11;75.06
64961;SHT31;51487;52.266;10.542;2024-02-21T14:23:49;12.04;74.74
64961;SHT31;51487;52.266;10.542;2024-02-21T14:26:15;11.94;75.12
64961;SHT31;51487;52.266;10.542;2024-02-21T14:28:41;11.99;74.87
64961;SHT31;51487;52.266;10.542;2024-02-21T14:31:07;11.97;75.15
64961;SHT31;51487;52.266;10.542;2024-02-21T14:33:38;11.95;74.70
64961;SHT31;51487;52.266;10.542;2024-02-21T14:36:04;11.80;75.35
64961;SHT31;51487;52.266;10.542;2024-02-21T14:38:30;11.78;75.39
64961;SHT31;51487;52.266;10.542;2024-02-21T14:40:55;11.74;76.28
64961;SHT31;51487;52.266;10.542;2024-02-21T14:43:21;11.61;76.65
64961;SHT31;51487;52.266;10.542;2024-02-21T14:45:50;11.63;76.98
64961;SHT31;51487;52.266;10.542;2024-02-21T14:48:15;11.61;76.57
64961;SHT31;51487;52.266;10.542;2024-02-21T14:50:41;11.56;77.45
64961;SHT31;51487;52.266;10.542;2024-02-21T14:53:10;11.40;77.49
64961;SHT31;51487;52.266;10.542;2024-02-21T14:55:36;11.43;77.76
64961;SHT31;51487;52.266;10.542;2024-02-21T14:58:02;11.49;77.63
64961;SHT31;51487;52.266;10.542;2024-02-21T15:00:27;11.29;78.20
64961;SHT31;51487;52.266;10.542;2024-02-21T15:02:59;11.26;78.08
64961;SHT31;51487;52.266;10.542;2024-02-21T15:05:25;11.24;78.27
64961;SHT31;51487;52.266;10.542;2024-02-21T15:07:51;11.24;78.49
64961;SHT31;51487;52.266;10.542;2024-02-21T15:10:17;11.24;78.60
64961;SHT31;51487;52.266;10.542;2024-02-21T15:12:47;11.18;78.54
64961;SHT31;51487;52.266;10.542;2024-02-21T15:15:13;11.18;78.61
64961;SHT31;51487;52.266;10.542;2024-02-21T15:17:40;11.26;78.30
64961;SHT31;51487;52.266;10.542;2024-02-21T15:20:06;11.23;78.32
64961;SHT31;51487;52.266;10.542;2024-02-21T15:22:36;11.08;78.58
64961;SHT31;51487;52.266;10.542;2024-02-21T15:25:02;11.06;78.70
64961;SHT31;51487;52.266;10.542;2024-02-21T15:27:31;10.95;79.22
64961;SHT31;51487;52.266;10.542;2024-02-21T15:29:57;10.99;79.24